createdAt,value
2023-04-20T00:01:42.977Z,11.06
2023-04-20T00:04:09.783Z,11.10
2023-04-20T00:06:37.176Z,11.14
2023-04-20T00:09:04.237Z,11.22
2023-04-20T00:11:31.011Z,11.27
2023-04-20T00:13:58.170Z,11.27
2023-04-20T00:16:25.107Z,11.25
2023-04-20T00:18:51.879Z,11.23
2023-04-20T00:21:23.331Z,11.16
2023-04-20T00:23:50.661Z,11.07
2023-04-20T00:26:17.874Z,11.03
2023-04-20T00:28:45.389Z,10.98
2023-04-20T00:31:12.318Z,10.95
2023-04-20T00:33:39.148Z,10.98
2023-04-20T00:36:08.380Z,11.00
2023-04-20T00:38:36.504Z,10.99
2023-04-20T00:41:03.342Z,10.97
2023-04-20T00:43:32.071Z,10.98
2023-04-20T00:45:59.147Z,10.99
2023-04-20T00:48:26.066Z,11.03
2023-04-20T00:50:52.896Z,11.05
2023-04-20T00:53:19.794Z,11.04
2023-04-20T00:55:46.626Z,11.02
2023-04-20T00:58:13.666Z,11.01
2023-04-20T01:00:40.593Z,11.00
2023-04-20T01:03:08.219Z,11.00
2023-04-20T01:05:35.260Z,11.04
2023-04-20T01:08:02.558Z,11.11
2023-04-20T01:10:29.976Z,11.19
2023-04-20T01:12:57.890Z,11.26
2023-04-20T01:15:25.742Z,11.33
2023-04-20T01:17:53.151Z,11.37
2023-04-20T01:20:20.015Z,11.39
2023-04-20T01:22:50.814Z,11.38
2023-04-20T01:25:17.949Z,11.36
2023-04-20T01:27:47.941Z,11.34
2023-04-20T01:30:16.641Z,11.32
2023-04-20T01:32:43.842Z,11.32
2023-04-20T01:35:10.692Z,11.36
2023-04-20T01:37:38.690Z,11.43
2023-04-20T01:40:08.707Z,11.52
2023-04-20T01:42:37.066Z,11.59
2023-04-20T01:45:05.826Z,11.65
2023-04-20T01:47:33.631Z,11.69
2023-04-20T01:50:00.521Z,11.72
2023-04-20T01:52:27.553Z,11.72
2023-04-20T01:54:54.394Z,11.72
2023-04-20T01:57:21.430Z,11.70
2023-04-20T01:59:48.509Z,11.66
2023-04-20T02:02:15.426Z,11.63
2023-04-20T02:04:42.415Z,11.65
2023-04-20T02:07:09.502Z,11.64
2023-04-20T02:09:38.172Z,11.66
2023-04-20T02:12:05.274Z,11.68
2023-04-20T02:14:32.455Z,11.69
2023-04-20T02:17:00.632Z,11.67
2023-04-20T02:19:27.560Z,11.66
2023-04-20T02:21:54.644Z,11.63
2023-04-20T02:24:21.958Z,11.59
2023-04-20T02:26:48.926Z,11.54
2023-04-20T02:29:16.381Z,11.49
2023-04-20T02:31:43.949Z,11.45
2023-04-20T02:34:10.918Z,11.40
2023-04-20T02:36:38.262Z,11.39
2023-04-20T02:39:05.395Z,11.40
2023-04-20T02:41:34.508Z,11.39
2023-04-20T02:44:03.362Z,11.37
2023-04-20T02:46:31.767Z,11.38
2023-04-20T02:48:59.315Z,11.39
2023-04-20T02:51:26.470Z,11.36
2023-04-20T02:53:53.922Z,11.34
2023-04-20T02:56:30.697Z,11.33
2023-04-20T02:59:01.580Z,11.36
2023-04-20T03:02:07.933Z,11.44
2023-04-20T03:04:37.544Z,11.52
2023-04-20T03:07:14.006Z,11.55
2023-04-20T03:09:43.294Z,11.58
2023-04-20T03:12:22.632Z,11.60
2023-04-20T03:14:58.623Z,11.58
2023-04-20T03:17:36.362Z,11.60
2023-04-20T03:20:04.453Z,11.63
2023-04-20T03:22:31.750Z,11.67
2023-04-20T03:25:01.231Z,11.66
2023-04-20T03:27:47.729Z,11.61
2023-04-20T03:30:14.868Z,11.56
2023-04-20T03:32:42.473Z,11.56
2023-04-20T03:35:09.758Z,11.54
2023-04-20T03:37:37.811Z,11.54
2023-04-20T03:40:10.007Z,11.57
2023-04-20T03:42:37.578Z,11.59
2023-04-20T03:45:05.902Z,11.65
2023-04-20T03:47:33.395Z,11.74
2023-04-20T03:50:00.384Z,11.80
2023-04-20T03:52:28.357Z,11.88
2023-04-20T03:54:55.769Z,11.94
2023-04-20T03:57:22.655Z,11.95
2023-04-20T03:59:49.646Z,11.94
2023-04-20T04:02:18.849Z,11.90
2023-04-20T04:04:47.001Z,11.84
2023-04-20T04:07:14.615Z,11.78
2023-04-20T04:09:42.417Z,11.76
2023-04-20T04:12:09.490Z,11.76
2023-04-20T04:14:37.331Z,11.73
2023-04-20T04:17:04.568Z,11.71
2023-04-20T04:19:33.196Z,11.71
2023-04-20T04:22:00.446Z,11.68
2023-04-20T04:24:27.565Z,11.61
2023-04-20T04:27:05.858Z,11.53
2023-04-20T04:29:41.402Z,11.46
2023-04-20T04:32:39.379Z,11.44
2023-04-20T04:35:45.698Z,11.44
2023-04-20T04:38:23.780Z,11.46
2023-04-20T04:40:53.013Z,11.49
2023-04-20T04:43:19.956Z,11.53
2023-04-20T04:45:55.044Z,11.53
2023-04-20T04:48:22.661Z,11.52
2023-04-20T04:50:49.547Z,11.54
2023-04-20T04:53:16.903Z,11.54
2023-04-20T04:55:49.693Z,11.55
2023-04-20T04:58:16.533Z,11.58
2023-04-20T05:00:43.526Z,11.64
2023-04-20T05:03:10.735Z,11.67
2023-04-20T05:05:37.757Z,11.67
2023-04-20T05:08:05.124Z,11.67
2023-04-20T05:10:33.522Z,11.65
2023-04-20T05:13:00.460Z,11.59
2023-04-20T05:15:27.502Z,11.54
2023-04-20T05:17:54.556Z,11.53
2023-04-20T05:20:21.666Z,11.52
2023-04-20T05:22:48.857Z,11.51
2023-04-20T05:25:15.959Z,11.52
2023-04-20T05:27:43.124Z,11.49
2023-04-20T05:30:20.353Z,11.50
2023-04-20T05:32:52.628Z,11.46
2023-04-20T05:35:22.950Z,11.43
2023-04-20T05:37:51.378Z,11.43
2023-04-20T05:40:19.120Z,11.45
2023-04-20T05:42:48.764Z,11.47
2023-04-20T05:45:16.462Z,11.46
2023-04-20T05:47:52.938Z,11.44
2023-04-20T05:50:20.098Z,11.46
2023-04-20T05:55:48.539Z,11.46
2023-04-20T05:58:17.134Z,11.48
2023-04-20T06:02:16.932Z,11.47
2023-04-20T06:04:44.867Z,11.40
2023-04-20T06:07:12.413Z,11.35
2023-04-20T06:09:40.973Z,11.32
2023-04-20T06:12:09.545Z,11.30
2023-04-20T06:14:37.292Z,11.33
2023-04-20T06:17:06.648Z,11.40
2023-04-20T06:19:35.404Z,11.46
2023-04-20T06:22:08.538Z,11.50
2023-04-20T06:24:37.085Z,11.47
2023-04-20T06:27:08.246Z,11.43
2023-04-20T06:29:43.693Z,11.41
2023-04-20T06:32:12.438Z,11.40
2023-04-20T06:34:45.903Z,11.39
2023-04-20T06:37:24.538Z,11.37
2023-04-20T06:40:11.080Z,11.34
2023-04-20T06:42:39.067Z,11.33
2023-04-20T06:45:07.128Z,11.32
2023-04-20T06:47:35.131Z,11.33
2023-04-20T06:50:07.537Z,11.33
2023-04-20T06:52:37.860Z,11.34
2023-04-20T06:55:06.627Z,11.33
2023-04-20T06:57:33.721Z,11.27
2023-04-20T07:00:01.006Z,11.27
2023-04-20T07:02:28.302Z,11.26
2023-04-20T07:05:01.432Z,11.25
2023-04-20T07:07:28.678Z,11.23
2023-04-20T07:10:04.024Z,11.24
2023-04-20T07:12:31.897Z,11.25
2023-04-20T07:14:59.042Z,11.26
2023-04-20T07:17:29.314Z,11.24
2023-04-20T07:19:56.853Z,11.27
2023-04-20T07:22:24.865Z,11.24
2023-04-20T07:24:51.973Z,11.26
2023-04-20T07:27:19.732Z,11.29
2023-04-20T18:29:19.007Z,10.28
2023-04-20T18:32:28.089Z,10.30
2023-04-20T18:34:59.965Z,10.32
2023-04-20T18:37:28.111Z,10.30
2023-04-20T18:39:55.955Z,10.22
2023-04-20T18:42:23.195Z,10.13
2023-04-20T18:44:52.776Z,10.11
2023-04-20T18:47:39.740Z,10.04
2023-04-20T18:50:07.231Z,10.04
2023-04-20T18:52:35.763Z,10.04
2023-04-20T18:55:03.459Z,10.06
2023-04-20T18:57:33.417Z,10.09
2023-04-20T19:00:00.747Z,10.11
2023-04-20T19:02:28.762Z,10.10
2023-04-20T19:04:56.439Z,10.06
2023-04-20T19:07:23.385Z,10.01
2023-04-20T19:09:50.316Z,9.94
2023-04-20T19:12:17.285Z,9.90
2023-04-20T19:14:47.062Z,9.89
2023-04-20T19:17:17.536Z,9.85
2023-04-20T19:19:45.518Z,9.81
2023-04-20T19:22:12.375Z,9.83
2023-04-20T19:24:40.015Z,9.89
2023-04-20T19:27:08.580Z,9.91
2023-04-20T19:29:36.087Z,9.90
2023-04-20T19:32:03.122Z,9.88
2023-04-20T19:34:32.860Z,9.90
2023-04-20T19:37:00.045Z,9.92
2023-04-20T19:39:28.503Z,9.88
2023-04-20T19:41:55.648Z,9.83
2023-04-20T19:44:23.411Z,9.81
2023-04-20T19:46:50.906Z,9.79
2023-04-20T19:49:18.980Z,9.77
2023-04-20T19:51:47.238Z,9.79
2023-04-20T19:54:16.952Z,9.82
2023-04-20T19:56:44.537Z,9.83
2023-04-20T19:59:11.575Z,9.83
2023-04-20T20:01:38.551Z,9.83
2023-04-20T20:04:05.720Z,9.83
2023-04-20T20:06:32.939Z,9.85
2023-04-20T20:09:00.076Z,9.87
2023-04-20T20:11:27.974Z,9.91
2023-04-20T20:13:54.944Z,9.91
2023-04-20T20:16:21.949Z,9.88
2023-04-20T20:18:50.534Z,9.82
2023-04-20T20:21:17.583Z,9.78
2023-04-20T20:23:44.639Z,9.74
2023-04-20T20:26:11.754Z,9.70
2023-04-20T20:28:38.593Z,9.70
2023-04-20T20:31:05.562Z,9.72
2023-04-20T20:33:33.200Z,9.74
2023-04-20T20:36:01.040Z,9.76
2023-04-20T20:38:30.454Z,9.80
2023-04-20T20:40:58.211Z,9.82
2023-04-20T20:43:25.066Z,9.85
2023-04-20T20:45:51.960Z,9.90
2023-04-20T20:48:18.845Z,9.89
2023-04-20T20:50:45.873Z,9.91
2023-04-20T20:53:13.481Z,9.91
2023-04-20T20:55:40.561Z,9.91
2023-04-20T20:58:07.346Z,9.92
2023-04-20T21:00:35.229Z,9.94
2023-04-20T21:03:02.429Z,9.96
2023-04-20T21:05:29.372Z,9.93
2023-04-20T21:07:58.306Z,9.89
2023-04-20T21:10:25.284Z,9.89
2023-04-20T21:12:52.148Z,9.89
2023-04-20T21:15:20.900Z,9.91
2023-04-20T21:17:47.822Z,9.94
2023-04-20T21:20:14.892Z,9.92
2023-04-20T21:22:42.204Z,9.91
2023-04-20T21:25:09.294Z,9.90
2023-04-20T21:27:36.206Z,9.93
2023-04-20T21:30:31.907Z,9.92
2023-04-20T21:32:58.939Z,9.92
2023-04-20T21:35:26.003Z,9.93
2023-04-20T21:37:53.208Z,9.92
2023-04-20T21:40:21.392Z,9.94
2023-04-20T21:42:48.623Z,9.98
2023-04-20T21:45:15.548Z,10.04
2023-04-20T21:47:42.482Z,10.10
2023-04-20T21:50:10.029Z,10.14
2023-04-20T21:52:37.278Z,10.10
2023-04-20T21:55:04.496Z,10.05
2023-04-20T21:57:31.937Z,10.02
2023-04-20T21:59:58.733Z,10.00
2023-04-20T22:02:25.818Z,10.02
2023-04-20T22:04:53.276Z,10.03
2023-04-20T22:07:20.572Z,9.98
2023-04-20T22:09:47.908Z,9.90
2023-04-20T22:12:16.011Z,9.85
2023-04-20T22:14:44.024Z,9.82
2023-04-20T22:17:11.336Z,9.76
2023-04-20T22:19:38.275Z,9.70
2023-04-20T22:22:05.236Z,9.66
2023-04-20T22:24:32.856Z,9.63
2023-04-20T22:27:01.748Z,9.61
2023-04-20T22:29:28.804Z,9.64
2023-04-20T22:31:55.599Z,9.67
2023-04-20T22:34:25.419Z,9.70
2023-04-20T22:36:52.570Z,9.70
2023-04-20T22:39:19.759Z,9.73
2023-04-20T22:41:46.836Z,9.72
2023-04-20T22:44:13.729Z,9.74
2023-04-20T22:46:40.989Z,9.73
2023-04-20T22:49:08.531Z,9.71
2023-04-20T22:51:35.840Z,9.71
2023-04-20T22:54:03.826Z,9.74
2023-04-20T22:56:31.550Z,9.79
2023-04-20T22:58:58.389Z,9.78
2023-04-20T23:01:25.410Z,9.78
2023-04-20T23:03:52.410Z,9.78
2023-04-20T23:06:21.834Z,9.79
2023-04-20T23:08:48.851Z,9.78
2023-04-20T23:11:15.871Z,9.76
2023-04-20T23:13:42.756Z,9.77
2023-04-20T23:16:10.141Z,9.78
2023-04-20T23:18:37.198Z,9.80
2023-04-20T23:21:05.247Z,9.83
2023-04-20T23:23:32.410Z,9.83
2023-04-20T23:25:59.355Z,9.85
2023-04-20T23:28:26.437Z,9.85
2023-04-20T23:30:53.307Z,9.84
2023-04-20T23:33:20.712Z,9.83
2023-04-20T23:35:47.536Z,9.84
2023-04-20T23:38:14.769Z,9.86
2023-04-20T23:40:41.671Z,9.84
2023-04-20T23:43:08.541Z,9.84
2023-04-20T23:45:35.946Z,9.87
2023-04-20T23:48:02.910Z,9.89
2023-04-20T23:50:29.938Z,9.91
2023-04-20T23:52:57.096Z,9.90
2023-04-20T23:55:23.948Z,9.88
2023-04-20T23:57:52.357Z,9.86
